sensor_id;sensor_type;location;lat;lon;timestamp;pressure;altitude;pressure_sealevel;temperature;humidity
23172;BME280;11754;42.664;23.594;2023-01-10T00:00:05;94765.50;;;4.65;76.43
23172;BME280;11754;42.664;23.594;2023-01-10T00:02:30;94758.91;;;4.61;76.62
23172;BME280;11754;42.664;23.594;2023-01-10T00:04:56;94742.44;;;4.60;76.63
23172;BME280;11754;42.664;23.594;2023-01-10T00:07:21;94753.16;;;4.57;76.31
23172;BME280;11754;42.664;23.594;2023-01-10T00:09:46;94755.38;;;4.62;76.43
23172;BME280;11754;42.664;23.594;2023-01-10T00:12:12;94760.59;;;4.62;76.57
23172;BME280;11754;42.664;23.594;2023-01-10T00:14:55;94752.44;;;4.65;76.65
23172;BME280;11754;42.664;23.594;2023-01-10T00:17:21;94741.91;;;4.56;76.78
23172;BME280;11754;42.664;23.594;2023-01-10T00:19:46;94732.81;;;4.61;76.40
23172;BME280;11754;42.664;23.594;2023-01-10T00:22:11;94707.31;;;4.54;76.35
23172;BME280;11754;42.664;23.594;2023-01-10T00:24:37;94712.94;;;4.50;76.98
23172;BME280;11754;42.664;23.594;2023-01-10T00:27:03;94697.19;;;4.42;77.12
23172;BME280;11754;42.664;23.594;2023-01-10T00:29:29;94703.41;;;4.41;77.60
23172;BME280;11754;42.664;23.594;2023-01-10T00:31:59;94699.81;;;4.42;77.92
23172;BME280;11754;42.664;23.594;2023-01-10T00:34:24;94722.50;;;4.41;77.80
23172;BME280;11754;42.664;23.594;2023-01-10T00:36:51;94730.13;;;4.52;77.48
23172;BME280;11754;42.664;23.594;2023-01-10T00:39:16;94721.31;;;4.53;76.93
23172;BME280;11754;42.664;23.594;2023-01-10T00:41:44;94708.41;;;4.52;76.81
23172;BME280;11754;42.664;23.594;2023-01-10T00:44:28;94707.34;;;4.45;77.02
23172;BME280;11754;42.664;23.594;2023-01-10T00:46:53;94696.91;;;4.45;77.26
23172;BME280;11754;42.664;23.594;2023-01-10T00:49:18;94696.38;;;4.41;77.22
23172;BME280;11754;42.664;23.594;2023-01-10T00:51:44;94685.53;;;4.36;77.47
23172;BME280;11754;42.664;23.594;2023-01-10T00:54:10;94703.81;;;4.36;77.89
23172;BME280;11754;42.664;23.594;2023-01-10T00:56:37;94722.78;;;4.38;77.84
23172;BME280;11754;42.664;23.594;2023-01-10T00:59:03;94690.75;;;4.36;77.86
23172;BME280;11754;42.664;23.594;2023-01-10T01:01:29;94679.13;;;4.30;77.79
23172;BME280;11754;42.664;23.594;2023-01-10T01:03:54;94666.22;;;4.29;77.96
23172;BME280;11754;42.664;23.594;2023-01-10T01:06:20;94649.59;;;4.30;77.88
23172;BME280;11754;42.664;23.594;2023-01-10T01:08:45;94640.13;;;4.29;78.09
23172;BME280;11754;42.664;23.594;2023-01-10T01:11:10;94660.34;;;4.27;78.51
23172;BME280;11754;42.664;23.594;2023-01-10T01:13:36;94662.66;;;4.30;78.58
23172;BME280;11754;42.664;23.594;2023-01-10T01:16:01;94656.63;;;4.29;78.23
23172;BME280;11754;42.664;23.594;2023-01-10T01:18:27;94661.44;;;4.24;79.02
23172;BME280;11754;42.664;23.594;2023-01-10T01:20:55;94664.47;;;4.29;78.66
23172;BME280;11754;42.664;23.594;2023-01-10T01:23:21;94673.63;;;4.33;78.46
23172;BME280;11754;42.664;23.594;2023-01-10T01:25:53;94687.56;;;4.42;78.34
23172;BME280;11754;42.664;23.594;2023-01-10T01:28:18;94646.03;;;4.49;77.75
23172;BME280;11754;42.664;23.594;2023-01-10T01:30:44;94637.50;;;4.47;77.52
23172;BME280;11754;42.664;23.594;2023-01-10T01:33:10;94642.16;;;4.53;77.79
23172;BME280;11754;42.664;23.594;2023-01-10T01:35:35;94634.84;;;4.56;77.22
23172;BME280;11754;42.664;23.594;2023-01-10T01:38:01;94624.84;;;4.52;77.23
23172;BME280;11754;42.664;23.594;2023-01-10T01:40:26;94637.59;;;4.55;77.14
23172;BME280;11754;42.664;23.594;2023-01-10T01:42:52;94644.63;;;4.54;77.24
23172;BME280;11754;42.664;23.594;2023-01-10T01:47:49;94684.63;;;4.73;76.46
23172;BME280;11754;42.664;23.594;2023-01-10T01:50:18;94687.81;;;4.67;76.59
23172;BME280;11754;42.664;23.594;2023-01-10T01:52:47;94689.22;;;4.79;75.84
23172;BME280;11754;42.664;23.594;2023-01-10T01:55:14;94674.53;;;4.78;75.73
23172;BME280;11754;42.664;23.594;2023-01-10T01:57:40;94671.09;;;4.77;75.76
23172;BME280;11754;42.664;23.594;2023-01-10T02:00:06;94671.31;;;4.84;75.90
23172;BME280;11754;42.664;23.594;2023-01-10T02:02:35;94653.28;;;4.73;75.73
23172;BME280;11754;42.664;23.594;2023-01-10T02:05:06;94636.22;;;4.69;76.04
23172;BME280;11754;42.664;23.594;2023-01-10T02:07:35;94645.34;;;4.65;75.96
23172;BME280;11754;42.664;23.594;2023-01-10T02:10:03;94648.63;;;4.67;76.37
23172;BME280;11754;42.664;23.594;2023-01-10T02:12:31;94666.63;;;4.70;75.93
23172;BME280;11754;42.664;23.594;2023-01-10T02:14:58;94634.47;;;4.69;75.99
23172;BME280;11754;42.664;23.594;2023-01-10T02:17:23;94631.00;;;4.69;76.18
23172;BME280;11754;42.664;23.594;2023-01-10T02:19:50;94622.06;;;4.71;76.21
23172;BME280;11754;42.664;23.594;2023-01-10T02:36:43;94589.28;;;4.33;77.60
23172;BME280;11754;42.664;23.594;2023-01-10T02:41:58;94551.34;;;4.29;77.66
23172;BME280;11754;42.664;23.594;2023-01-10T02:44:35;94549.72;;;4.28;77.86
23172;BME280;11754;42.664;23.594;2023-01-10T02:47:07;94551.00;;;4.24;77.76
23172;BME280;11754;42.664;23.594;2023-01-10T02:49:47;94559.00;;;4.22;77.87
23172;BME280;11754;42.664;23.594;2023-01-10T02:52:21;94566.84;;;4.22;78.29
23172;BME280;11754;42.664;23.594;2023-01-10T02:54:48;94561.66;;;4.30;77.79
23172;BME280;11754;42.664;23.594;2023-01-10T02:57:29;94578.22;;;4.39;77.51
23172;BME280;11754;42.664;23.594;2023-01-10T03:00:21;94579.53;;;4.43;77.01
23172;BME280;11754;42.664;23.594;2023-01-10T03:11:05;94605.28;;;4.74;75.42
23172;BME280;11754;42.664;23.594;2023-01-10T03:13:36;94583.38;;;4.75;75.82
23172;BME280;11754;42.664;23.594;2023-01-10T03:16:06;94582.66;;;4.65;75.94
23172;BME280;11754;42.664;23.594;2023-01-10T03:18:37;94617.00;;;4.70;75.66
23172;BME280;11754;42.664;23.594;2023-01-10T03:21:06;94597.28;;;4.57;76.36
23172;BME280;11754;42.664;23.594;2023-01-10T03:23:33;94574.94;;;4.55;76.18
23172;BME280;11754;42.664;23.594;2023-01-10T03:25:59;94564.63;;;4.53;76.79
23172;BME280;11754;42.664;23.594;2023-01-10T03:28:30;94571.50;;;4.54;76.61
23172;BME280;11754;42.664;23.594;2023-01-10T03:31:02;94565.53;;;4.44;77.21
23172;BME280;11754;42.664;23.594;2023-01-10T03:33:31;94577.78;;;4.44;77.65
23172;BME280;11754;42.664;23.594;2023-01-10T03:36:27;94565.09;;;4.31;78.21
23172;BME280;11754;42.664;23.594;2023-01-10T03:41:46;94578.16;;;4.31;78.26
23172;BME280;11754;42.664;23.594;2023-01-10T03:44:29;94586.78;;;4.31;78.51
23172;BME280;11754;42.664;23.594;2023-01-10T03:47:33;94593.75;;;4.23;78.99
23172;BME280;11754;42.664;23.594;2023-01-10T03:50:22;94616.25;;;4.24;78.84
23172;BME280;11754;42.664;23.594;2023-01-10T03:52:55;94605.28;;;4.20;79.32
23172;BME280;11754;42.664;23.594;2023-01-10T03:55:25;94593.34;;;4.18;79.19
23172;BME280;11754;42.664;23.594;2023-01-10T03:57:50;94592.41;;;4.19;80.05
23172;BME280;11754;42.664;23.594;2023-01-10T04:00:16;94581.97;;;4.19;80.07
23172;BME280;11754;42.664;23.594;2023-01-10T04:02:42;94567.47;;;4.24;79.84
23172;BME280;11754;42.664;23.594;2023-01-10T04:05:08;94549.72;;;4.28;79.37
23172;BME280;11754;42.664;23.594;2023-01-10T04:07:34;94563.88;;;4.43;79.26
23172;BME280;11754;42.664;23.594;2023-01-10T04:09:59;94563.97;;;4.51;78.61
23172;BME280;11754;42.664;23.594;2023-01-10T04:12:25;94554.69;;;4.57;78.42
23172;BME280;11754;42.664;23.594;2023-01-10T04:14:51;94537.59;;;4.63;77.80
23172;BME280;11754;42.664;23.594;2023-01-10T04:17:17;94507.28;;;4.70;77.56
23172;BME280;11754;42.664;23.594;2023-01-10T04:19:43;94507.13;;;4.71;77.06
23172;BME280;11754;42.664;23.594;2023-01-10T04:22:10;94498.44;;;4.63;77.15
23172;BME280;11754;42.664;23.594;2023-01-10T04:24:35;94482.38;;;4.57;77.43
23172;BME280;11754;42.664;23.594;2023-01-10T04:27:00;94480.44;;;4.60;77.62
23172;BME280;11754;42.664;23.594;2023-01-10T04:29:26;94487.31;;;4.61;77.45
23172;BME280;11754;42.664;23.594;2023-01-10T04:31:51;94485.06;;;4.66;77.32
23172;BME280;11754;42.664;23.594;2023-01-10T04:34:17;94498.91;;;4.58;76.95
23172;BME280;11754;42.664;23.594;2023-01-10T04:36:44;94502.38;;;4.41;77.51
23172;BME280;11754;42.664;23.594;2023-01-10T04:39:10;94516.59;;;4.46;77.93
23172;BME280;11754;42.664;23.594;2023-01-10T04:41:35;94553.44;;;4.43;77.89
23172;BME280;11754;42.664;23.594;2023-01-10T04:44:01;94563.59;;;4.46;78.09
23172;BME280;11754;42.664;23.594;2023-01-10T04:46:26;94591.03;;;4.50;78.11
23172;BME280;11754;42.664;23.594;2023-01-10T04:48:51;94607.44;;;4.61;78.23
23172;BME280;11754;42.664;23.594;2023-01-10T04:51:17;94611.16;;;4.76;77.37
23172;BME280;11754;42.664;23.594;2023-01-10T04:53:42;94598.16;;;4.84;76.93
23172;BME280;11754;42.664;23.594;2023-01-10T04:56:16;94587.34;;;4.79;76.87
23172;BME280;11754;42.664;23.594;2023-01-10T04:58:42;94579.97;;;4.74;77.07
23172;BME280;11754;42.664;23.594;2023-01-10T05:01:16;94581.75;;;4.74;77.42
23172;BME280;11754;42.664;23.594;2023-01-10T05:03:42;94589.72;;;4.72;77.98
23172;BME280;11754;42.664;23.594;2023-01-10T05:06:08;94570.28;;;4.67;77.95
23172;BME280;11754;42.664;23.594;2023-01-10T05:08:34;94577.56;;;4.81;78.20
23172;BME280;11754;42.664;23.594;2023-01-10T05:10:59;94576.13;;;4.87;77.80
23172;BME280;11754;42.664;23.594;2023-01-10T05:13:25;94560.03;;;4.99;77.15
23172;BME280;11754;42.664;23.594;2023-01-10T05:15:54;94542.16;;;5.13;77.20
23172;BME280;11754;42.664;23.594;2023-01-10T05:18:24;94528.31;;;5.20;76.74
23172;BME280;11754;42.664;23.594;2023-01-10T05:20:50;94522.72;;;5.15;76.49
23172;BME280;11754;42.664;23.594;2023-01-10T05:23:15;94519.66;;;5.20;76.50
23172;BME280;11754;42.664;23.594;2023-01-10T05:25:41;94506.84;;;5.09;76.92
23172;BME280;11754;42.664;23.594;2023-01-10T05:28:06;94514.69;;;5.09;77.00
23172;BME280;11754;42.664;23.594;2023-01-10T05:30:32;94505.06;;;5.09;77.24
23172;BME280;11754;42.664;23.594;2023-01-10T05:32:57;94500.06;;;5.24;76.55
23172;BME280;11754;42.664;23.594;2023-01-10T05:35:22;94505.09;;;5.17;76.94
23172;BME280;11754;42.664;23.594;2023-01-10T05:37:48;94491.53;;;5.22;76.83
23172;BME280;11754;42.664;23.594;2023-01-10T05:40:13;94492.53;;;5.21;76.99
23172;BME280;11754;42.664;23.594;2023-01-10T05:42:38;94511.75;;;5.12;77.24
23172;BME280;11754;42.664;23.594;2023-01-10T05:45:04;94528.78;;;5.16;77.52
23172;BME280;11754;42.664;23.594;2023-01-10T05:47:29;94533.00;;;5.09;77.49
23172;BME280;11754;42.664;23.594;2023-01-10T05:49:55;94523.97;;;5.03;77.63
23172;BME280;11754;42.664;23.594;2023-01-10T05:52:20;94532.09;;;5.00;78.21
23172;BME280;11754;42.664;23.594;2023-01-10T05:54:46;94537.19;;;5.01;77.95
23172;BME280;11754;42.664;23.594;2023-01-10T05:57:11;94543.84;;;4.96;78.13
23172;BME280;11754;42.664;23.594;2023-01-10T05:59:36;94533.91;;;4.99;78.10
23172;BME280;11754;42.664;23.594;2023-01-10T06:02:02;94532.28;;;4.98;78.21
23172;BME280;11754;42.664;23.594;2023-01-10T06:04:27;94527.44;;;5.12;78.24
23172;BME280;11754;42.664;23.594;2023-01-10T06:06:52;94533.63;;;5.11;78.28
23172;BME280;11754;42.664;23.594;2023-01-10T06:09:18;94549.31;;;5.11;78.22
23172;BME280;11754;42.664;23.594;2023-01-10T06:11:43;94552.94;;;5.18;77.82
23172;BME280;11754;42.664;23.594;2023-01-10T06:14:08;94551.00;;;5.20;78.48
23172;BME280;11754;42.664;23.594;2023-01-10T06:16:34;94560.00;;;5.25;78.19
23172;BME280;11754;42.664;23.594;2023-01-10T06:18:59;94560.88;;;5.34;78.13
23172;BME280;11754;42.664;23.594;2023-01-10T06:21:25;94559.13;;;5.51;77.46
23172;BME280;11754;42.664;23.594;2023-01-10T06:23:50;94545.78;;;5.62;77.07
23172;BME280;11754;42.664;23.594;2023-01-10T06:26:16;94559.41;;;5.74;76.74
23172;BME280;11754;42.664;23.594;2023-01-10T06:28:42;94549.44;;;5.77;76.44
23172;BME280;11754;42.664;23.594;2023-01-10T06:31:08;94544.53;;;5.91;76.03
23172;BME280;11754;42.664;23.594;2023-01-10T06:33:34;94537.91;;;5.96;75.92
23172;BME280;11754;42.664;23.594;2023-01-10T06:36:00;94537.25;;;6.03;75.56
23172;BME280;11754;42.664;23.594;2023-01-10T06:38:25;94543.81;;;6.15;75.69
23172;BME280;11754;42.664;23.594;2023-01-10T06:40:50;94535.00;;;6.24;75.23
23172;BME280;11754;42.664;23.594;2023-01-10T06:43:16;94540.56;;;6.29;74.89
23172;BME280;11754;42.664;23.594;2023-01-10T06:45:41;94544.34;;;6.43;74.77
23172;BME280;11754;42.664;23.594;2023-01-10T06:48:07;94541.88;;;6.58;73.80
23172;BME280;11754;42.664;23.594;2023-01-10T06:50:32;94533.50;;;6.62;73.41
23172;BME280;11754;42.664;23.594;2023-01-10T06:52:59;94533.19;;;6.65;73.50
23172;BME280;11754;42.664;23.594;2023-01-10T06:55:24;94535.31;;;6.70;73.23
23172;BME280;11754;42.664;23.594;2023-01-10T06:57:57;94535.13;;;6.80;73.04
23172;BME280;11754;42.664;23.594;2023-01-10T07:00:23;94525.13;;;6.83;72.62
23172;BME280;11754;42.664;23.594;2023-01-10T07:02:49;94523.66;;;6.89;72.60
23172;BME280;11754;42.664;23.594;2023-01-10T07:05:14;94521.34;;;6.94;72.13
23172;BME280;11754;42.664;23.594;2023-01-10T07:07:40;94526.09;;;6.98;72.23
23172;BME280;11754;42.664;23.594;2023-01-10T07:10:05;94527.72;;;7.08;72.24
23172;BME280;11754;42.664;23.594;2023-01-10T07:12:31;94531.31;;;7.15;72.05
23172;BME280;11754;42.664;23.594;2023-01-10T07:14:56;94526.34;;;7.20;71.89
23172;BME280;11754;42.664;23.594;2023-01-10T07:17:21;94533.38;;;7.28;71.80
23172;BME280;11754;42.664;23.594;2023-01-10T07:19:47;94540.41;;;7.43;71.28
23172;BME280;11754;42.664;23.594;2023-01-10T07:22:12;94538.44;;;7.37;71.07
23172;BME280;11754;42.664;23.594;2023-01-10T07:24:38;94539.25;;;7.38;71.56
23172;BME280;11754;42.664;23.594;2023-01-10T07:27:03;94539.72;;;7.41;71.50
23172;BME280;11754;42.664;23.594;2023-01-10T07:29:28;94533.00;;;7.39;71.63
23172;BME280;11754;42.664;23.594;2023-01-10T07:31:54;94532.84;;;7.40;71.79
23172;BME280;11754;42.664;23.594;2023-01-10T07:34:19;94535.44;;;7.49;71.41
23172;BME280;11754;42.664;23.594;2023-01-10T07:36:44;94533.59;;;7.57;70.91
23172;BME280;11754;42.664;23.594;2023-01-10T07:39:10;94516.44;;;7.46;70.76
23172;BME280;11754;42.664;23.594;2023-01-10T07:41:35;94514.47;;;7.49;71.10
23172;BME280;11754;42.664;23.594;2023-01-10T07:44:01;94510.25;;;7.39;71.32
23172;BME280;11754;42.664;23.594;2023-01-10T07:46:26;94514.78;;;7.45;71.76
23172;BME280;11754;42.664;23.594;2023-01-10T07:48:51;94523.31;;;7.47;71.85
23172;BME280;11754;42.664;23.594;2023-01-10T07:51:17;94509.53;;;7.45;72.00
23172;BME280;11754;42.664;23.594;2023-01-10T07:53:42;94498.38;;;7.52;71.94
23172;BME280;11754;42.664;23.594;2023-01-10T07:56:07;94499.66;;;7.56;71.88
23172;BME280;11754;42.664;23.594;2023-01-10T07:58:33;94509.63;;;7.60;71.33
23172;BME280;11754;42.664;23.594;2023-01-10T08:01:00;94498.72;;;7.49;71.97
23172;BME280;11754;42.664;23.594;2023-01-10T08:03:26;94493.19;;;7.35;72.54
23172;BME280;11754;42.664;23.594;2023-01-10T08:05:59;94498.91;;;7.47;72.74
23172;BME280;11754;42.664;23.594;2023-01-10T08:08:24;94489.25;;;7.39;72.68
23172;BME280;11754;42.664;23.594;2023-01-10T08:10:50;94482.69;;;7.35;73.04
23172;BME280;11754;42.664;23.594;2023-01-10T08:13:15;94484.34;;;7.36;72.85
23172;BME280;11754;42.664;23.594;2023-01-10T08:15:41;94487.94;;;7.35;72.86
23172;BME280;11754;42.664;23.594;2023-01-10T08:18:06;94488.31;;;7.32;73.12
23172;BME280;11754;42.664;23.594;2023-01-10T08:20:31;94483.66;;;7.42;72.80
23172;BME280;11754;42.664;23.594;2023-01-10T08:22:57;94465.31;;;7.34;73.16
23172;BME280;11754;42.664;23.594;2023-01-10T08:25:23;94462.06;;;7.32;73.25
23172;BME280;11754;42.664;23.594;2023-01-10T08:27:49;94450.63;;;7.25;73.77
23172;BME280;11754;42.664;23.594;2023-01-10T08:30:15;94439.66;;;7.21;74.02
23172;BME280;11754;42.664;23.594;2023-01-10T08:32:40;94421.84;;;7.09;73.99
23172;BME280;11754;42.664;23.594;2023-01-10T08:35:06;94430.72;;;7.08;74.55
23172;BME280;11754;42.664;23.594;2023-01-10T08:37:31;94429.41;;;7.04;75.28
23172;BME280;11754;42.664;23.594;2023-01-10T08:39:56;94428.75;;;7.02;75.09
23172;BME280;11754;42.664;23.594;2023-01-10T08:42:22;94421.56;;;7.04;75.59
23172;BME280;11754;42.664;23.594;2023-01-10T08:44:47;94425.66;;;6.98;75.69
23172;BME280;11754;42.664;23.594;2023-01-10T08:47:12;94427.47;;;6.97;76.17
23172;BME280;11754;42.664;23.594;2023-01-10T08:49:38;94421.19;;;7.07;75.94
23172;BME280;11754;42.664;23.594;2023-01-10T08:52:04;94420.66;;;7.19;75.50
23172;BME280;11754;42.664;23.594;2023-01-10T08:54:30;94411.09;;;7.27;75.36
23172;BME280;11754;42.664;23.594;2023-01-10T08:56:56;94415.81;;;7.39;74.78
23172;BME280;11754;42.664;23.594;2023-01-10T08:59:21;94413.53;;;7.36;74.90
23172;BME280;11754;42.664;23.594;2023-01-10T09:01:47;94415.44;;;7.42;74.71
23172;BME280;11754;42.664;23.594;2023-01-10T09:04:12;94395.75;;;7.46;74.33
23172;BME280;11754;42.664;23.594;2023-01-10T09:06:37;94400.75;;;7.56;74.54
23172;BME280;11754;42.664;23.594;2023-01-10T09:09:03;94398.00;;;7.58;74.31
23172;BME280;11754;42.664;23.594;2023-01-10T09:11:29;94396.31;;;7.65;73.75
23172;BME280;11754;42.664;23.594;2023-01-10T09:13:54;94386.47;;;7.82;73.69
23172;BME280;11754;42.664;23.594;2023-01-10T09:16:19;94383.03;;;7.81;73.35
23172;BME280;11754;42.664;23.594;2023-01-10T09:18:45;94379.06;;;7.85;72.70
23172;BME280;11754;42.664;23.594;2023-01-10T09:21:10;94375.09;;;7.89;73.01
23172;BME280;11754;42.664;23.594;2023-01-10T09:23:36;94367.88;;;7.91;72.75
23172;BME280;11754;42.664;23.594;2023-01-10T09:26:03;94378.97;;;8.02;72.17
23172;BME280;11754;42.664;23.594;2023-01-10T09:28:29;94372.19;;;7.84;72.42
23172;BME280;11754;42.664;23.594;2023-01-10T09:30:54;94367.63;;;7.78;72.94
23172;BME280;11754;42.664;23.594;2023-01-10T09:33:20;94371.38;;;7.61;73.60
23172;BME280;11754;42.664;23.594;2023-01-10T09:35:45;94357.63;;;7.36;74.19
23172;BME280;11754;42.664;23.594;2023-01-10T09:38:13;94363.84;;;7.35;74.91
23172;BME280;11754;42.664;23.594;2023-01-10T09:43:13;94349.91;;;7.34;75.23
23172;BME280;11754;42.664;23.594;2023-01-10T09:45:55;94357.38;;;7.45;75.12
23172;BME280;11754;42.664;23.594;2023-01-10T09:48:42;94344.78;;;7.64;75.01
23172;BME280;11754;42.664;23.594;2023-01-10T09:53:56;94332.03;;;7.99;73.70
23172;BME280;11754;42.664;23.594;2023-01-10T09:56:24;94335.41;;;8.07;73.45
23172;BME280;11754;42.664;23.594;2023-01-10T09:58:50;94343.69;;;8.19;73.58
23172;BME280;11754;42.664;23.594;2023-01-10T10:01:22;94327.19;;;8.25;73.47
23172;BME280;11754;42.664;23.594;2023-01-10T10:06:35;94316.19;;;8.45;72.84
23172;BME280;11754;42.664;23.594;2023-01-10T10:09:01;94317.91;;;8.52;72.83
23172;BME280;11754;42.664;23.594;2023-01-10T10:14:16;94313.09;;;8.71;71.69
23172;BME280;11754;42.664;23.594;2023-01-10T10:22:09;94298.53;;;8.89;71.67
23172;BME280;11754;42.664;23.594;2023-01-10T10:29:55;94309.69;;;8.32;73.22
23172;BME280;11754;42.664;23.594;2023-01-10T10:35:30;94293.97;;;7.65;75.75
23172;BME280;11754;42.664;23.594;2023-01-10T10:38:02;94302.19;;;7.62;76.26
23172;BME280;11754;42.664;23.594;2023-01-10T10:40:33;94298.78;;;7.53;76.53
23172;BME280;11754;42.664;23.594;2023-01-10T10:43:20;94302.13;;;7.47;77.43
23172;BME280;11754;42.664;23.594;2023-01-10T10:45:51;94298.63;;;7.32;77.82
23172;BME280;11754;42.664;23.594;2023-01-10T10:48:23;94293.56;;;7.30;78.46
23172;BME280;11754;42.664;23.594;2023-01-10T10:53:18;94296.63;;;7.57;78.30
23172;BME280;11754;42.664;23.594;2023-01-10T10:55:43;94288.13;;;7.55;77.85
23172;BME280;11754;42.664;23.594;2023-01-10T10:58:10;94291.53;;;7.78;77.62
23172;BME280;11754;42.664;23.594;2023-01-10T11:00:36;94287.13;;;7.93;77.07
23172;BME280;11754;42.664;23.594;2023-01-10T11:05:55;94275.56;;;8.17;75.52
23172;BME280;11754;42.664;23.594;2023-01-10T11:08:21;94277.91;;;8.27;75.99
23172;BME280;11754;42.664;23.594;2023-01-10T11:10:53;94269.94;;;8.35;75.56
23172;BME280;11754;42.664;23.594;2023-01-10T11:15:57;94266.16;;;8.53;74.40
23172;BME280;11754;42.664;23.594;2023-01-10T11:18:26;94257.34;;;8.60;74.43
23172;BME280;11754;42.664;23.594;2023-01-10T11:21:05;94270.78;;;8.65;73.90
23172;BME280;11754;42.664;23.594;2023-01-10T11:23:56;94265.97;;;8.69;74.15
23172;BME280;11754;42.664;23.594;2023-01-10T11:26:30;94262.34;;;8.70;73.30
23172;BME280;11754;42.664;23.594;2023-01-10T11:29:17;94274.03;;;8.68;73.46
23172;BME280;11754;42.664;23.594;2023-01-10T11:31:45;94272.84;;;8.70;73.42
23172;BME280;11754;42.664;23.594;2023-01-10T11:34:29;94276.09;;;8.72;72.82
23172;BME280;11754;42.664;23.594;2023-01-10T11:36:59;94272.41;;;8.66;73.22
23172;BME280;11754;42.664;23.594;2023-01-10T11:39:26;94264.75;;;8.72;73.16
23172;BME280;11754;42.664;23.594;2023-01-10T11:41:52;94257.25;;;8.69;73.59
23172;BME280;11754;42.664;23.594;2023-01-10T11:44:28;94267.59;;;8.70;73.09
23172;BME280;11754;42.664;23.594;2023-01-10T11:47:03;94270.47;;;8.75;73.18
23172;BME280;11754;42.664;23.594;2023-01-10T11:49:35;94274.00;;;8.82;72.63
23172;BME280;11754;42.664;23.594;2023-01-10T11:52:25;94263.66;;;8.81;72.75
23172;BME280;11754;42.664;23.594;2023-01-10T11:54:53;94255.34;;;8.77;72.80
23172;BME280;11754;42.664;23.594;2023-01-10T11:57:24;94259.22;;;8.81;73.06
23172;BME280;11754;42.664;23.594;2023-01-10T11:59:55;94247.00;;;8.74;72.79
23172;BME280;11754;42.664;23.594;2023-01-10T12:02:28;94245.81;;;8.76;72.98
23172;BME280;11754;42.664;23.594;2023-01-10T12:04:58;94246.19;;;8.73;73.19
23172;BME280;11754;42.664;23.594;2023-01-10T12:07:24;94250.69;;;8.79;72.94
23172;BME280;11754;42.664;23.594;2023-01-10T12:10:02;94253.59;;;8.84;72.73
23172;BME280;11754;42.664;23.594;2023-01-10T12:12:32;94252.41;;;8.87;72.65
23172;BME280;11754;42.664;23.594;2023-01-10T12:15:25;94254.50;;;8.92;72.53
23172;BME280;11754;42.664;23.594;2023-01-10T12:17:53;94251.44;;;8.73;72.29
23172;BME280;11754;42.664;23.594;2023-01-10T12:20:20;94254.03;;;8.52;73.43
23172;BME280;11754;42.664;23.594;2023-01-10T12:22:51;94260.38;;;8.42;73.88
23172;BME280;11754;42.664;23.594;2023-01-10T12:25:23;94256.34;;;8.17;74.86
23172;BME280;11754;42.664;23.594;2023-01-10T12:27:52;94255.81;;;8.07;75.69
23172;BME280;11754;42.664;23.594;2023-01-10T12:30:33;94258.66;;;7.82;76.35
23172;BME280;11754;42.664;23.594;2023-01-10T12:33:08;94266.88;;;7.64;77.62
23172;BME280;11754;42.664;23.594;2023-01-10T12:35:37;94272.84;;;7.58;78.33
23172;BME280;11754;42.664;23.594;2023-01-10T12:38:19;94260.63;;;7.51;78.97
23172;BME280;11754;42.664;23.594;2023-01-10T12:41:06;94258.34;;;7.47;78.72
23172;BME280;11754;42.664;23.594;2023-01-10T12:43:39;94270.81;;;7.45;79.44
23172;BME280;11754;42.664;23.594;2023-01-10T12:46:46;94247.19;;;7.45;79.43
23172;BME280;11754;42.664;23.594;2023-01-10T12:49:22;94256.28;;;7.58;78.99
23172;BME280;11754;42.664;23.594;2023-01-10T12:51:50;94254.28;;;7.60;78.91
23172;BME280;11754;42.664;23.594;2023-01-10T12:54:21;94236.22;;;7.65;79.04
23172;BME280;11754;42.664;23.594;2023-01-10T12:56:48;94237.75;;;7.74;78.92
23172;BME280;11754;42.664;23.594;2023-01-10T12:59:19;94255.88;;;7.84;78.50
23172;BME280;11754;42.664;23.594;2023-01-10T13:01:58;94266.53;;;7.67;78.53
23172;BME280;11754;42.664;23.594;2023-01-10T13:04:27;94263.72;;;7.31;79.51
23172;BME280;11754;42.664;23.594;2023-01-10T13:06:56;94263.50;;;7.18;80.09
23172;BME280;11754;42.664;23.594;2023-01-10T13:09:24;94258.28;;;7.10;80.97
23172;BME280;11754;42.664;23.594;2023-01-10T13:12:07;94269.84;;;7.01;81.13
23172;BME280;11754;42.664;23.594;2023-01-10T13:14:42;94266.16;;;6.87;81.75
23172;BME280;11754;42.664;23.594;2023-01-10T13:22:49;94280.41;;;6.84;82.16
23172;BME280;11754;42.664;23.594;2023-01-10T13:25:31;94275.41;;;6.97;82.39
23172;BME280;11754;42.664;23.594;2023-01-10T13:28:16;94272.53;;;6.84;82.33
23172;BME280;11754;42.664;23.594;2023-01-10T13:30:43;94272.00;;;6.66;82.82
23172;BME280;11754;42.664;23.594;2023-01-10T13:33:27;94268.47;;;6.50;83.56
23172;BME280;11754;42.664;23.594;2023-01-10T13:35:56;94285.50;;;6.46;84.45
23172;BME280;11754;42.664;23.594;2023-01-10T13:38:46;94282.09;;;6.38;84.72
23172;BME280;11754;42.664;23.594;2023-01-10T13:41:12;94278.97;;;6.42;84.99
23172;BME280;11754;42.664;23.594;2023-01-10T13:44:13;94279.66;;;6.36;85.36
23172;BME280;11754;42.664;23.594;2023-01-10T13:46:41;94278.50;;;6.31;85.53
23172;BME280;11754;42.664;23.594;2023-01-10T13:51:35;94277.66;;;6.46;85.63
23172;BME280;11754;42.664;23.594;2023-01-10T13:56:41;94290.09;;;6.44;85.68
23172;BME280;11754;42.664;23.594;2023-01-10T14:02:23;94295.38;;;6.36;85.75
23172;BME280;11754;42.664;23.594;2023-01-10T14:05:00;94304.47;;;6.48;85.95
23172;BME280;11754;42.664;23.594;2023-01-10T14:07:30;94293.03;;;6.49;85.65
23172;BME280;11754;42.664;23.594;2023-01-10T14:10:00;94286.13;;;6.48;85.40
23172;BME280;11754;42.664;23.594;2023-01-10T14:12:31;94275.00;;;6.55;85.56
23172;BME280;11754;42.664;23.594;2023-01-10T14:15:19;94273.03;;;6.57;85.32
23172;BME280;11754;42.664;23.594;2023-01-10T14:17:54;94274.31;;;6.61;84.96
23172;BME280;11754;42.664;23.594;2023-01-10T14:20:20;94288.38;;;6.60;85.01
23172;BME280;11754;42.664;23.594;2023-01-10T14:25:33;94294.66;;;6.50;85.25
23172;BME280;11754;42.664;23.594;2023-01-10T14:27:59;94292.19;;;6.49;85.46